Webcam & Weather

This webcam image will automatically refresh every 15 seconds.


METAR and TAF for EGLL Heathrow (12 Nautical Miles East of White Waltham)

METAR FOR EGLL (Issued: Thu, September 29th 2016 11:20 PM UTC):
EGLL 292320Z AUTO 24009KT 9999 NCD 12/09 Q1014 NOSIG

TAF FOR EGLL (Issued: Thu, September 29th 2016 6:15 PM UTC):
TAF EGLL 291656Z 2918/3024 23008KT 9999 FEW040 PROB30 TEMPO 3009/3017 7000 SHRA

Play 24 hour timelapse | Play 30 day timelapse

Comments are closed.